sensor_id;sensor_type;location;lat;lon;timestamp;P1;durP1;ratioP1;P2;durP2;ratioP2
66380;SDS011;53177;52.648;1.214;2024-01-07T00:01:46;6.97;;;1.70;;
66380;SDS011;53177;52.648;1.214;2024-01-07T00:04:15;5.80;;;1.50;;
66380;SDS011;53177;52.648;1.214;2024-01-07T00:06:41;5.82;;;1.30;;
66380;SDS011;53177;52.648;1.214;2024-01-07T00:09:07;5.30;;;1.33;;
66380;SDS011;53177;52.648;1.214;2024-01-07T00:11:33;7.13;;;1.40;;
66380;SDS011;53177;52.648;1.214;2024-01-07T00:13:58;6.67;;;1.30;;
66380;SDS011;53177;52.648;1.214;2024-01-07T00:16:23;3.50;;;0.90;;
66380;SDS011;53177;52.648;1.214;2024-01-07T00:18:49;5.72;;;1.35;;
66380;SDS011;53177;52.648;1.214;2024-01-07T00:21:14;6.93;;;1.70;;
66380;SDS011;53177;52.648;1.214;2024-01-07T00:23:40;4.33;;;1.17;;
66380;SDS011;53177;52.648;1.214;2024-01-07T00:26:05;11.63;;;1.70;;
66380;SDS011;53177;52.648;1.214;2024-01-07T00:28:31;5.93;;;1.23;;
66380;SDS011;53177;52.648;1.214;2024-01-07T00:30:56;6.77;;;1.20;;
66380;SDS011;53177;52.648;1.214;2024-01-07T00:33:22;5.10;;;1.30;;
66380;SDS011;53177;52.648;1.214;2024-01-07T00:35:47;7.47;;;1.60;;
66380;SDS011;53177;52.648;1.214;2024-01-07T00:38:13;7.23;;;1.10;;
66380;SDS011;53177;52.648;1.214;2024-01-07T00:40:38;5.63;;;1.30;;
66380;SDS011;53177;52.648;1.214;2024-01-07T00:43:04;4.50;;;1.13;;
66380;SDS011;53177;52.648;1.214;2024-01-07T00:45:29;4.95;;;1.02;;
66380;SDS011;53177;52.648;1.214;2024-01-07T00:47:55;7.38;;;1.20;;
66380;SDS011;53177;52.648;1.214;2024-01-07T00:50:20;4.30;;;1.10;;
66380;SDS011;53177;52.648;1.214;2024-01-07T00:52:46;5.07;;;1.20;;
66380;SDS011;53177;52.648;1.214;2024-01-07T00:55:12;4.80;;;1.30;;
66380;SDS011;53177;52.648;1.214;2024-01-07T00:57:37;5.93;;;1.30;;
66380;SDS011;53177;52.648;1.214;2024-01-07T01:00:06;4.67;;;1.20;;
66380;SDS011;53177;52.648;1.214;2024-01-07T01:02:32;6.03;;;2.30;;
66380;SDS011;53177;52.648;1.214;2024-01-07T01:04:57;5.27;;;1.50;;
66380;SDS011;53177;52.648;1.214;2024-01-07T01:07:23;5.77;;;1.30;;
66380;SDS011;53177;52.648;1.214;2024-01-07T01:09:48;6.47;;;1.30;;
66380;SDS011;53177;52.648;1.214;2024-01-07T01:12:14;7.50;;;1.50;;
66380;SDS011;53177;52.648;1.214;2024-01-07T01:14:40;8.03;;;1.30;;
66380;SDS011;53177;52.648;1.214;2024-01-07T01:17:06;7.25;;;1.83;;
66380;SDS011;53177;52.648;1.214;2024-01-07T01:19:31;4.70;;;1.63;;
66380;SDS011;53177;52.648;1.214;2024-01-07T01:21:57;5.82;;;1.48;;
66380;SDS011;53177;52.648;1.214;2024-01-07T01:24:23;6.83;;;1.40;;
66380;SDS011;53177;52.648;1.214;2024-01-07T01:26:48;4.90;;;1.20;;
66380;SDS011;53177;52.648;1.214;2024-01-07T01:29:13;6.70;;;1.50;;
66380;SDS011;53177;52.648;1.214;2024-01-07T01:31:39;8.30;;;1.80;;
66380;SDS011;53177;52.648;1.214;2024-01-07T01:34:04;9.63;;;1.80;;
66380;SDS011;53177;52.648;1.214;2024-01-07T01:36:33;4.17;;;1.50;;
66380;SDS011;53177;52.648;1.214;2024-01-07T01:38:58;6.45;;;1.27;;
66380;SDS011;53177;52.648;1.214;2024-01-07T01:41:24;6.07;;;1.40;;
66380;SDS011;53177;52.648;1.214;2024-01-07T01:43:49;8.17;;;1.20;;
66380;SDS011;53177;52.648;1.214;2024-01-07T01:46:15;5.82;;;0.93;;
66380;SDS011;53177;52.648;1.214;2024-01-07T01:48:40;4.33;;;0.93;;
66380;SDS011;53177;52.648;1.214;2024-01-07T01:51:07;4.50;;;0.88;;
66380;SDS011;53177;52.648;1.214;2024-01-07T01:53:33;7.40;;;1.20;;
66380;SDS011;53177;52.648;1.214;2024-01-07T01:56:00;4.53;;;1.00;;
66380;SDS011;53177;52.648;1.214;2024-01-07T01:58:27;6.43;;;1.10;;
66380;SDS011;53177;52.648;1.214;2024-01-07T02:00:53;5.07;;;1.08;;
66380;SDS011;53177;52.648;1.214;2024-01-07T02:03:19;4.63;;;0.70;;
66380;SDS011;53177;52.648;1.214;2024-01-07T02:05:45;6.13;;;0.93;;
66380;SDS011;53177;52.648;1.214;2024-01-07T02:08:13;3.70;;;0.70;;
66380;SDS011;53177;52.648;1.214;2024-01-07T02:10:38;3.77;;;0.70;;
66380;SDS011;53177;52.648;1.214;2024-01-07T02:13:04;3.35;;;0.80;;
66380;SDS011;53177;52.648;1.214;2024-01-07T02:15:30;3.87;;;0.60;;
66380;SDS011;53177;52.648;1.214;2024-01-07T02:17:56;3.85;;;0.70;;
66380;SDS011;53177;52.648;1.214;2024-01-07T02:20:21;2.87;;;0.60;;
66380;SDS011;53177;52.648;1.214;2024-01-07T02:22:47;3.63;;;0.75;;
66380;SDS011;53177;52.648;1.214;2024-01-07T02:25:12;4.17;;;0.70;;
66380;SDS011;53177;52.648;1.214;2024-01-07T02:27:38;5.47;;;1.10;;
66380;SDS011;53177;52.648;1.214;2024-01-07T02:30:04;4.20;;;0.63;;
66380;SDS011;53177;52.648;1.214;2024-01-07T02:32:29;3.22;;;0.70;;
66380;SDS011;53177;52.648;1.214;2024-01-07T02:34:59;2.80;;;0.50;;
66380;SDS011;53177;52.648;1.214;2024-01-07T02:37:25;3.58;;;0.80;;
66380;SDS011;53177;52.648;1.214;2024-01-07T02:39:50;4.73;;;0.93;;
66380;SDS011;53177;52.648;1.214;2024-01-07T02:42:16;5.63;;;0.87;;
66380;SDS011;53177;52.648;1.214;2024-01-07T02:44:41;4.33;;;1.20;;
66380;SDS011;53177;52.648;1.214;2024-01-07T02:47:06;4.77;;;1.00;;
66380;SDS011;53177;52.648;1.214;2024-01-07T02:49:32;5.75;;;0.93;;
66380;SDS011;53177;52.648;1.214;2024-01-07T02:51:57;4.60;;;0.83;;
66380;SDS011;53177;52.648;1.214;2024-01-07T02:54:23;6.17;;;0.90;;
66380;SDS011;53177;52.648;1.214;2024-01-07T02:56:48;4.27;;;0.77;;
66380;SDS011;53177;52.648;1.214;2024-01-07T02:59:14;3.77;;;0.63;;
66380;SDS011;53177;52.648;1.214;2024-01-07T03:01:39;5.07;;;0.90;;
66380;SDS011;53177;52.648;1.214;2024-01-07T03:04:10;6.20;;;0.80;;
66380;SDS011;53177;52.648;1.214;2024-01-07T03:06:36;4.88;;;1.00;;
66380;SDS011;53177;52.648;1.214;2024-01-07T03:09:01;5.97;;;1.33;;
66380;SDS011;53177;52.648;1.214;2024-01-07T03:11:27;5.28;;;1.00;;
66380;SDS011;53177;52.648;1.214;2024-01-07T03:13:53;4.70;;;0.90;;
66380;SDS011;53177;52.648;1.214;2024-01-07T03:16:19;4.23;;;1.10;;
66380;SDS011;53177;52.648;1.214;2024-01-07T03:18:46;3.92;;;0.95;;
66380;SDS011;53177;52.648;1.214;2024-01-07T03:21:18;5.03;;;1.00;;
66380;SDS011;53177;52.648;1.214;2024-01-07T03:23:44;3.95;;;1.00;;
66380;SDS011;53177;52.648;1.214;2024-01-07T03:26:10;5.65;;;1.23;;
66380;SDS011;53177;52.648;1.214;2024-01-07T03:28:35;7.60;;;1.33;;
66380;SDS011;53177;52.648;1.214;2024-01-07T03:31:18;5.47;;;0.93;;
66380;SDS011;53177;52.648;1.214;2024-01-07T03:33:46;4.88;;;1.10;;
66380;SDS011;53177;52.648;1.214;2024-01-07T03:36:13;5.68;;;1.00;;
66380;SDS011;53177;52.648;1.214;2024-01-07T03:38:39;6.10;;;1.33;;
66380;SDS011;53177;52.648;1.214;2024-01-07T03:41:05;5.00;;;1.20;;
66380;SDS011;53177;52.648;1.214;2024-01-07T03:43:31;8.82;;;1.75;;
66380;SDS011;53177;52.648;1.214;2024-01-07T03:45:57;6.43;;;1.35;;
66380;SDS011;53177;52.648;1.214;2024-01-07T03:48:26;8.03;;;1.20;;
66380;SDS011;53177;52.648;1.214;2024-01-07T03:50:51;6.72;;;1.13;;
66380;SDS011;53177;52.648;1.214;2024-01-07T03:53:17;8.77;;;1.17;;
66380;SDS011;53177;52.648;1.214;2024-01-07T03:55:43;7.38;;;1.20;;
66380;SDS011;53177;52.648;1.214;2024-01-07T03:58:08;7.53;;;1.27;;
66380;SDS011;53177;52.648;1.214;2024-01-07T04:00:34;7.32;;;1.27;;
66380;SDS011;53177;52.648;1.214;2024-01-07T04:03:00;6.40;;;1.30;;
66380;SDS011;53177;52.648;1.214;2024-01-07T04:05:26;5.40;;;1.10;;
66380;SDS011;53177;52.648;1.214;2024-01-07T04:07:52;8.97;;;1.43;;
66380;SDS011;53177;52.648;1.214;2024-01-07T04:10:17;4.32;;;0.90;;
66380;SDS011;53177;52.648;1.214;2024-01-07T04:12:43;5.38;;;1.23;;
66380;SDS011;53177;52.648;1.214;2024-01-07T04:15:09;6.20;;;1.38;;
66380;SDS011;53177;52.648;1.214;2024-01-07T04:17:35;5.10;;;1.00;;
66380;SDS011;53177;52.648;1.214;2024-01-07T04:20:01;7.15;;;1.10;;
66380;SDS011;53177;52.648;1.214;2024-01-07T04:22:26;6.07;;;1.10;;
66380;SDS011;53177;52.648;1.214;2024-01-07T04:24:52;5.17;;;0.87;;
66380;SDS011;53177;52.648;1.214;2024-01-07T04:27:18;5.32;;;0.88;;
66380;SDS011;53177;52.648;1.214;2024-01-07T04:29:43;4.30;;;0.80;;
66380;SDS011;53177;52.648;1.214;2024-01-07T04:32:08;3.67;;;0.80;;
66380;SDS011;53177;52.648;1.214;2024-01-07T04:34:34;5.03;;;0.70;;
66380;SDS011;53177;52.648;1.214;2024-01-07T04:36:59;10.38;;;1.02;;
66380;SDS011;53177;52.648;1.214;2024-01-07T04:39:25;7.20;;;1.10;;
66380;SDS011;53177;52.648;1.214;2024-01-07T04:41:51;8.13;;;1.27;;
66380;SDS011;53177;52.648;1.214;2024-01-07T04:44:16;5.20;;;0.88;;
66380;SDS011;53177;52.648;1.214;2024-01-07T04:46:42;5.07;;;1.07;;
66380;SDS011;53177;52.648;1.214;2024-01-07T04:49:07;6.60;;;1.00;;
66380;SDS011;53177;52.648;1.214;2024-01-07T04:51:33;5.25;;;0.90;;
66380;SDS011;53177;52.648;1.214;2024-01-07T04:53:58;5.93;;;1.13;;
66380;SDS011;53177;52.648;1.214;2024-01-07T04:56:24;5.20;;;1.10;;
66380;SDS011;53177;52.648;1.214;2024-01-07T04:58:50;4.57;;;0.80;;
66380;SDS011;53177;52.648;1.214;2024-01-07T05:01:15;4.20;;;0.87;;
66380;SDS011;53177;52.648;1.214;2024-01-07T05:03:41;4.87;;;0.90;;
66380;SDS011;53177;52.648;1.214;2024-01-07T05:06:09;5.28;;;0.80;;
66380;SDS011;53177;52.648;1.214;2024-01-07T05:08:35;4.13;;;0.97;;
66380;SDS011;53177;52.648;1.214;2024-01-07T05:11:05;5.28;;;0.85;;
66380;SDS011;53177;52.648;1.214;2024-01-07T05:13:31;3.60;;;0.75;;
66380;SDS011;53177;52.648;1.214;2024-01-07T05:15:56;3.97;;;0.60;;
66380;SDS011;53177;52.648;1.214;2024-01-07T05:18:25;4.10;;;0.70;;
66380;SDS011;53177;52.648;1.214;2024-01-07T05:20:51;3.58;;;0.70;;
66380;SDS011;53177;52.648;1.214;2024-01-07T05:23:21;4.53;;;0.77;;
66380;SDS011;53177;52.648;1.214;2024-01-07T05:25:46;6.17;;;0.93;;
66380;SDS011;53177;52.648;1.214;2024-01-07T05:28:12;5.50;;;0.70;;
66380;SDS011;53177;52.648;1.214;2024-01-07T05:30:38;3.72;;;0.63;;
66380;SDS011;53177;52.648;1.214;2024-01-07T05:33:05;2.92;;;0.73;;
66380;SDS011;53177;52.648;1.214;2024-01-07T05:35:31;3.60;;;0.70;;
66380;SDS011;53177;52.648;1.214;2024-01-07T05:37:57;4.07;;;0.90;;
66380;SDS011;53177;52.648;1.214;2024-01-07T05:40:22;3.35;;;0.60;;
66380;SDS011;53177;52.648;1.214;2024-01-07T05:42:48;3.87;;;0.77;;
66380;SDS011;53177;52.648;1.214;2024-01-07T05:45:13;3.10;;;0.70;;
66380;SDS011;53177;52.648;1.214;2024-01-07T05:47:39;2.83;;;0.60;;
66380;SDS011;53177;52.648;1.214;2024-01-07T05:50:06;5.00;;;0.90;;
66380;SDS011;53177;52.648;1.214;2024-01-07T05:52:32;4.50;;;0.95;;
66380;SDS011;53177;52.648;1.214;2024-01-07T05:54:57;5.90;;;0.97;;
66380;SDS011;53177;52.648;1.214;2024-01-07T05:57:23;7.57;;;1.05;;
66380;SDS011;53177;52.648;1.214;2024-01-07T05:59:49;4.10;;;0.90;;
66380;SDS011;53177;52.648;1.214;2024-01-07T06:02:15;5.72;;;0.98;;
66380;SDS011;53177;52.648;1.214;2024-01-07T06:04:42;6.85;;;1.17;;
66380;SDS011;53177;52.648;1.214;2024-01-07T06:07:08;7.18;;;1.30;;
66380;SDS011;53177;52.648;1.214;2024-01-07T06:09:33;9.93;;;1.30;;
66380;SDS011;53177;52.648;1.214;2024-01-07T06:11:59;4.30;;;1.00;;
66380;SDS011;53177;52.648;1.214;2024-01-07T06:14:24;7.00;;;1.05;;
66380;SDS011;53177;52.648;1.214;2024-01-07T06:16:50;8.83;;;1.40;;
66380;SDS011;53177;52.648;1.214;2024-01-07T06:19:16;5.93;;;1.33;;
66380;SDS011;53177;52.648;1.214;2024-01-07T06:21:42;7.63;;;1.50;;
66380;SDS011;53177;52.648;1.214;2024-01-07T06:24:08;5.93;;;1.27;;
66380;SDS011;53177;52.648;1.214;2024-01-07T06:26:33;7.38;;;1.42;;
66380;SDS011;53177;52.648;1.214;2024-01-07T06:28:59;7.70;;;1.80;;
66380;SDS011;53177;52.648;1.214;2024-01-07T06:31:25;7.23;;;1.30;;
66380;SDS011;53177;52.648;1.214;2024-01-07T06:33:50;7.30;;;1.50;;
66380;SDS011;53177;52.648;1.214;2024-01-07T06:36:16;6.83;;;1.37;;
66380;SDS011;53177;52.648;1.214;2024-01-07T06:38:41;5.65;;;1.15;;
66380;SDS011;53177;52.648;1.214;2024-01-07T06:41:07;5.70;;;1.20;;
66380;SDS011;53177;52.648;1.214;2024-01-07T06:43:32;6.43;;;1.10;;
66380;SDS011;53177;52.648;1.214;2024-01-07T06:45:58;5.32;;;1.10;;
66380;SDS011;53177;52.648;1.214;2024-01-07T06:48:24;4.33;;;1.20;;
66380;SDS011;53177;52.648;1.214;2024-01-07T06:50:52;9.18;;;1.10;;
66380;SDS011;53177;52.648;1.214;2024-01-07T06:53:17;9.77;;;1.20;;
66380;SDS011;53177;52.648;1.214;2024-01-07T06:55:43;4.57;;;1.10;;
66380;SDS011;53177;52.648;1.214;2024-01-07T06:58:08;5.28;;;0.90;;
66380;SDS011;53177;52.648;1.214;2024-01-07T07:00:34;6.43;;;1.10;;
66380;SDS011;53177;52.648;1.214;2024-01-07T07:02:59;5.40;;;1.00;;
66380;SDS011;53177;52.648;1.214;2024-01-07T07:05:24;5.67;;;1.40;;
66380;SDS011;53177;52.648;1.214;2024-01-07T07:07:50;7.50;;;1.13;;
66380;SDS011;53177;52.648;1.214;2024-01-07T07:10:15;6.65;;;1.25;;
66380;SDS011;53177;52.648;1.214;2024-01-07T07:12:41;5.47;;;1.20;;
66380;SDS011;53177;52.648;1.214;2024-01-07T07:15:06;6.07;;;1.40;;
66380;SDS011;53177;52.648;1.214;2024-01-07T07:17:35;7.50;;;1.17;;
66380;SDS011;53177;52.648;1.214;2024-01-07T07:20:01;5.72;;;1.10;;
66380;SDS011;53177;52.648;1.214;2024-01-07T07:22:27;8.27;;;1.30;;
66380;SDS011;53177;52.648;1.214;2024-01-07T07:24:53;5.13;;;1.05;;
66380;SDS011;53177;52.648;1.214;2024-01-07T07:27:19;4.43;;;1.00;;
66380;SDS011;53177;52.648;1.214;2024-01-07T07:29:44;5.43;;;1.10;;
66380;SDS011;53177;52.648;1.214;2024-01-07T07:32:09;5.68;;;1.20;;
66380;SDS011;53177;52.648;1.214;2024-01-07T07:34:35;4.17;;;0.97;;
66380;SDS011;53177;52.648;1.214;2024-01-07T07:37:02;6.15;;;1.10;;
66380;SDS011;53177;52.648;1.214;2024-01-07T07:39:28;6.63;;;1.20;;
66380;SDS011;53177;52.648;1.214;2024-01-07T07:41:53;8.05;;;1.33;;
66380;SDS011;53177;52.648;1.214;2024-01-07T07:44:19;4.43;;;1.00;;
66380;SDS011;53177;52.648;1.214;2024-01-07T07:46:44;7.20;;;1.37;;
66380;SDS011;53177;52.648;1.214;2024-01-07T07:49:10;8.70;;;1.10;;
66380;SDS011;53177;52.648;1.214;2024-01-07T07:51:36;7.93;;;1.40;;
66380;SDS011;53177;52.648;1.214;2024-01-07T07:54:01;7.20;;;1.57;;
66380;SDS011;53177;52.648;1.214;2024-01-07T07:56:28;10.75;;;1.23;;
66380;SDS011;53177;52.648;1.214;2024-01-07T07:58:54;9.13;;;1.20;;
66380;SDS011;53177;52.648;1.214;2024-01-07T08:01:19;7.38;;;1.75;;
66380;SDS011;53177;52.648;1.214;2024-01-07T08:03:45;6.70;;;1.50;;
66380;SDS011;53177;52.648;1.214;2024-01-07T08:06:11;5.15;;;1.10;;
66380;SDS011;53177;52.648;1.214;2024-01-07T08:08:36;5.78;;;1.23;;
66380;SDS011;53177;52.648;1.214;2024-01-07T08:11:02;5.67;;;1.23;;
66380;SDS011;53177;52.648;1.214;2024-01-07T08:13:27;6.82;;;1.20;;
66380;SDS011;53177;52.648;1.214;2024-01-07T08:15:53;6.83;;;1.23;;
66380;SDS011;53177;52.648;1.214;2024-01-07T08:18:18;5.23;;;1.27;;
66380;SDS011;53177;52.648;1.214;2024-01-07T08:20:44;5.93;;;1.30;;
66380;SDS011;53177;52.648;1.214;2024-01-07T08:23:09;6.22;;;1.33;;
66380;SDS011;53177;52.648;1.214;2024-01-07T08:25:35;6.77;;;1.10;;
66380;SDS011;53177;52.648;1.214;2024-01-07T08:28:01;8.77;;;1.50;;
66380;SDS011;53177;52.648;1.214;2024-01-07T08:30:26;7.47;;;1.40;;
66380;SDS011;53177;52.648;1.214;2024-01-07T08:32:52;5.37;;;1.20;;
66380;SDS011;53177;52.648;1.214;2024-01-07T08:35:17;7.47;;;1.40;;
66380;SDS011;53177;52.648;1.214;2024-01-07T08:37:42;5.93;;;1.43;;
66380;SDS011;53177;52.648;1.214;2024-01-07T08:40:08;7.28;;;1.17;;
66380;SDS011;53177;52.648;1.214;2024-01-07T08:42:35;5.85;;;1.20;;
66380;SDS011;53177;52.648;1.214;2024-01-07T08:45:01;5.60;;;1.23;;
66380;SDS011;53177;52.648;1.214;2024-01-07T08:47:28;4.00;;;1.05;;
66380;SDS011;53177;52.648;1.214;2024-01-07T08:49:56;5.55;;;1.20;;
66380;SDS011;53177;52.648;1.214;2024-01-07T08:52:21;5.68;;;1.38;;
66380;SDS011;53177;52.648;1.214;2024-01-07T08:54:47;4.50;;;1.10;;
66380;SDS011;53177;52.648;1.214;2024-01-07T08:57:12;4.90;;;1.50;;
66380;SDS011;53177;52.648;1.214;2024-01-07T08:59:38;6.03;;;1.20;;
66380;SDS011;53177;52.648;1.214;2024-01-07T09:02:03;8.63;;;1.73;;
66380;SDS011;53177;52.648;1.214;2024-01-07T09:04:30;6.17;;;1.63;;
66380;SDS011;53177;52.648;1.214;2024-01-07T09:06:55;9.07;;;1.35;;
66380;SDS011;53177;52.648;1.214;2024-01-07T09:09:21;4.90;;;1.20;;
66380;SDS011;53177;52.648;1.214;2024-01-07T09:11:46;6.03;;;1.40;;
66380;SDS011;53177;52.648;1.214;2024-01-07T09:14:11;4.93;;;1.30;;
66380;SDS011;53177;52.648;1.214;2024-01-07T09:16:39;7.93;;;1.25;;
66380;SDS011;53177;52.648;1.214;2024-01-07T09:19:04;8.00;;;1.60;;
66380;SDS011;53177;52.648;1.214;2024-01-07T09:21:30;7.22;;;1.42;;
66380;SDS011;53177;52.648;1.214;2024-01-07T09:23:55;8.03;;;1.37;;
66380;SDS011;53177;52.648;1.214;2024-01-07T09:26:21;5.03;;;1.13;;
66380;SDS011;53177;52.648;1.214;2024-01-07T09:28:46;6.13;;;1.37;;
66380;SDS011;53177;52.648;1.214;2024-01-07T09:31:12;7.13;;;1.30;;
66380;SDS011;53177;52.648;1.214;2024-01-07T09:33:37;4.85;;;1.40;;
66380;SDS011;53177;52.648;1.214;2024-01-07T09:36:03;6.40;;;1.10;;
66380;SDS011;53177;52.648;1.214;2024-01-07T09:38:28;9.67;;;1.43;;
66380;SDS011;53177;52.648;1.214;2024-01-07T09:40:54;7.13;;;1.35;;
66380;SDS011;53177;52.648;1.214;2024-01-07T09:43:20;6.23;;;1.20;;
66380;SDS011;53177;52.648;1.214;2024-01-07T09:45:48;6.25;;;1.20;;
66380;SDS011;53177;52.648;1.214;2024-01-07T09:48:17;5.97;;;1.57;;
66380;SDS011;53177;52.648;1.214;2024-01-07T09:50:42;6.18;;;1.27;;
66380;SDS011;53177;52.648;1.214;2024-01-07T09:53:08;5.43;;;1.17;;
66380;SDS011;53177;52.648;1.214;2024-01-07T09:58:50;4.97;;;1.13;;
66380;SDS011;53177;52.648;1.214;2024-01-07T10:01:17;5.80;;;1.20;;
66380;SDS011;53177;52.648;1.214;2024-01-07T10:03:42;20.33;;;2.58;;
66380;SDS011;53177;52.648;1.214;2024-01-07T10:06:10;4.95;;;1.10;;
66380;SDS011;53177;52.648;1.214;2024-01-07T10:08:36;7.75;;;1.25;;
66380;SDS011;53177;52.648;1.214;2024-01-07T10:11:02;5.07;;;1.15;;
66380;SDS011;53177;52.648;1.214;2024-01-07T10:13:28;4.53;;;0.90;;
66380;SDS011;53177;52.648;1.214;2024-01-07T10:15:53;4.93;;;1.30;;
66380;SDS011;53177;52.648;1.214;2024-01-07T10:18:19;5.43;;;1.13;;
66380;SDS011;53177;52.648;1.214;2024-01-07T10:20:45;5.33;;;1.10;;
66380;SDS011;53177;52.648;1.214;2024-01-07T10:23:11;7.20;;;1.20;;
66380;SDS011;53177;52.648;1.214;2024-01-07T10:25:37;6.40;;;1.30;;
66380;SDS011;53177;52.648;1.214;2024-01-07T10:28:02;8.53;;;1.97;;
66380;SDS011;53177;52.648;1.214;2024-01-07T10:30:28;5.63;;;1.40;;
66380;SDS011;53177;52.648;1.214;2024-01-07T10:32:57;5.57;;;1.40;;
66380;SDS011;53177;52.648;1.214;2024-01-07T10:35:33;5.60;;;1.20;;
66380;SDS011;53177;52.648;1.214;2024-01-07T10:38:00;10.50;;;1.60;;
66380;SDS011;53177;52.648;1.214;2024-01-07T10:40:29;7.72;;;1.38;;
66380;SDS011;53177;52.648;1.214;2024-01-07T10:42:56;5.70;;;1.20;;
66380;SDS011;53177;52.648;1.214;2024-01-07T10:45:23;8.18;;;1.80;;
66380;SDS011;53177;52.648;1.214;2024-01-07T10:47:49;6.37;;;1.33;;
66380;SDS011;53177;52.648;1.214;2024-01-07T10:50:18;6.00;;;1.40;;
66380;SDS011;53177;52.648;1.214;2024-01-07T10:52:57;4.28;;;1.20;;
66380;SDS011;53177;52.648;1.214;2024-01-07T10:55:28;6.30;;;1.77;;
66380;SDS011;53177;52.648;1.214;2024-01-07T10:57:59;4.70;;;1.23;;
66380;SDS011;53177;52.648;1.214;2024-01-07T11:00:26;7.78;;;1.85;;
66380;SDS011;53177;52.648;1.214;2024-01-07T11:03:00;8.20;;;1.60;;
66380;SDS011;53177;52.648;1.214;2024-01-07T11:05:36;6.80;;;1.70;;
66380;SDS011;53177;52.648;1.214;2024-01-07T11:08:13;5.95;;;1.45;;
66380;SDS011;53177;52.648;1.214;2024-01-07T11:10:46;4.05;;;1.20;;
66380;SDS011;53177;52.648;1.214;2024-01-07T11:13:49;5.07;;;1.60;;
66380;SDS011;53177;52.648;1.214;2024-01-07T11:16:08;10.63;;;1.90;;
66380;SDS011;53177;52.648;1.214;2024-01-07T11:18:39;6.82;;;1.48;;
66380;SDS011;53177;52.648;1.214;2024-01-07T11:21:10;7.35;;;1.50;;
66380;SDS011;53177;52.648;1.214;2024-01-07T11:23:36;8.10;;;1.90;;
66380;SDS011;53177;52.648;1.214;2024-01-07T11:26:08;6.47;;;1.50;;
66380;SDS011;53177;52.648;1.214;2024-01-07T11:28:54;6.10;;;1.58;;
66380;SDS011;53177;52.648;1.214;2024-01-07T11:34:07;6.53;;;1.50;;
66380;SDS011;53177;52.648;1.214;2024-01-07T11:36:34;6.53;;;1.58;;
66380;SDS011;53177;52.648;1.214;2024-01-07T11:39:00;12.20;;;1.73;;
66380;SDS011;53177;52.648;1.214;2024-01-07T11:41:27;5.82;;;1.50;;
66380;SDS011;53177;52.648;1.214;2024-01-07T11:43:57;5.28;;;1.30;;
66380;SDS011;53177;52.648;1.214;2024-01-07T11:46:25;8.57;;;1.60;;
66380;SDS011;53177;52.648;1.214;2024-01-07T11:48:55;7.50;;;1.73;;
66380;SDS011;53177;52.648;1.214;2024-01-07T11:51:28;7.55;;;1.42;;
66380;SDS011;53177;52.648;1.214;2024-01-07T11:53:55;8.65;;;1.95;;
66380;SDS011;53177;52.648;1.214;2024-01-07T11:56:22;6.75;;;1.45;;
66380;SDS011;53177;52.648;1.214;2024-01-07T11:58:47;6.57;;;1.73;;
66380;SDS011;53177;52.648;1.214;2024-01-07T12:01:15;8.37;;;1.70;;
66380;SDS011;53177;52.648;1.214;2024-01-07T12:03:43;7.13;;;1.60;;
66380;SDS011;53177;52.648;1.214;2024-01-07T12:06:09;6.32;;;1.73;;
66380;SDS011;53177;52.648;1.214;2024-01-07T12:08:38;6.80;;;1.52;;
66380;SDS011;53177;52.648;1.214;2024-01-07T12:11:11;5.43;;;1.70;;
66380;SDS011;53177;52.648;1.214;2024-01-07T12:13:37;7.68;;;1.30;;
66380;SDS011;53177;52.648;1.214;2024-01-07T12:16:06;5.40;;;1.75;;
66380;SDS011;53177;52.648;1.214;2024-01-07T12:18:33;5.05;;;1.30;;
66380;SDS011;53177;52.648;1.214;2024-01-07T12:21:01;6.82;;;1.10;;
66380;SDS011;53177;52.648;1.214;2024-01-07T12:23:26;5.73;;;1.20;;
66380;SDS011;53177;52.648;1.214;2024-01-07T12:25:52;7.60;;;1.87;;
66380;SDS011;53177;52.648;1.214;2024-01-07T12:28:18;6.63;;;1.30;;
66380;SDS011;53177;52.648;1.214;2024-01-07T12:30:45;8.10;;;1.40;;
66380;SDS011;53177;52.648;1.214;2024-01-07T12:33:15;7.30;;;1.35;;
66380;SDS011;53177;52.648;1.214;2024-01-07T12:35:43;7.67;;;1.47;;
66380;SDS011;53177;52.648;1.214;2024-01-07T12:38:10;6.35;;;1.45;;
66380;SDS011;53177;52.648;1.214;2024-01-07T12:40:35;6.90;;;1.37;;
66380;SDS011;53177;52.648;1.214;2024-01-07T12:43:01;6.90;;;1.30;;
66380;SDS011;53177;52.648;1.214;2024-01-07T12:45:27;6.75;;;1.20;;
66380;SDS011;53177;52.648;1.214;2024-01-07T12:47:52;7.90;;;1.40;;
66380;SDS011;53177;52.648;1.214;2024-01-07T12:50:20;6.90;;;1.20;;
66380;SDS011;53177;52.648;1.214;2024-01-07T12:52:48;5.93;;;1.33;;
66380;SDS011;53177;52.648;1.214;2024-01-07T12:55:13;5.97;;;1.03;;
66380;SDS011;53177;52.648;1.214;2024-01-07T12:57:39;6.07;;;1.40;;
66380;SDS011;53177;52.648;1.214;2024-01-07T13:00:04;5.60;;;1.30;;
66380;SDS011;53177;52.648;1.214;2024-01-07T13:02:31;8.30;;;1.88;;
66380;SDS011;53177;52.648;1.214;2024-01-07T13:04:58;8.32;;;1.60;;
66380;SDS011;53177;52.648;1.214;2024-01-07T13:07:23;6.73;;;1.30;;
66380;SDS011;53177;52.648;1.214;2024-01-07T13:09:49;8.80;;;1.70;;
66380;SDS011;53177;52.648;1.214;2024-01-07T13:12:14;5.78;;;1.55;;
66380;SDS011;53177;52.648;1.214;2024-01-07T13:14:40;6.00;;;1.27;;
66380;SDS011;53177;52.648;1.214;2024-01-07T13:17:07;9.25;;;1.55;;
66380;SDS011;53177;52.648;1.214;2024-01-07T13:19:33;4.65;;;1.30;;
66380;SDS011;53177;52.648;1.214;2024-01-07T13:21:59;5.40;;;1.20;;
66380;SDS011;53177;52.648;1.214;2024-01-07T13:24:26;5.65;;;1.40;;
66380;SDS011;53177;52.648;1.214;2024-01-07T13:26:51;4.73;;;1.30;;
66380;SDS011;53177;52.648;1.214;2024-01-07T13:29:16;8.43;;;1.87;;
66380;SDS011;53177;52.648;1.214;2024-01-07T13:31:42;7.40;;;1.70;;
66380;SDS011;53177;52.648;1.214;2024-01-07T13:34:08;6.78;;;1.27;;
66380;SDS011;53177;52.648;1.214;2024-01-07T13:36:33;5.60;;;1.37;;
66380;SDS011;53177;52.648;1.214;2024-01-07T13:38:59;7.23;;;1.60;;
66380;SDS011;53177;52.648;1.214;2024-01-07T13:41:24;6.05;;;1.23;;
66380;SDS011;53177;52.648;1.214;2024-01-07T13:43:53;6.63;;;1.40;;
66380;SDS011;53177;52.648;1.214;2024-01-07T13:46:21;7.30;;;1.52;;
66380;SDS011;53177;52.648;1.214;2024-01-07T13:48:48;4.97;;;1.40;;
66380;SDS011;53177;52.648;1.214;2024-01-07T13:51:14;7.35;;;1.70;;
66380;SDS011;53177;52.648;1.214;2024-01-07T13:53:39;6.13;;;1.67;;
66380;SDS011;53177;52.648;1.214;2024-01-07T13:56:04;7.87;;;1.67;;
66380;SDS011;53177;52.648;1.214;2024-01-07T13:58:32;6.22;;;1.77;;
66380;SDS011;53177;52.648;1.214;2024-01-07T14:00:57;5.70;;;1.50;;
66380;SDS011;53177;52.648;1.214;2024-01-07T14:03:23;8.67;;;1.57;;
66380;SDS011;53177;52.648;1.214;2024-01-07T14:05:48;10.07;;;1.90;;
66380;SDS011;53177;52.648;1.214;2024-01-07T14:08:14;7.65;;;2.00;;
66380;SDS011;53177;52.648;1.214;2024-01-07T14:10:40;8.20;;;1.70;;
66380;SDS011;53177;52.648;1.214;2024-01-07T14:13:05;7.53;;;1.50;;
66380;SDS011;53177;52.648;1.214;2024-01-07T14:15:31;8.77;;;1.83;;
66380;SDS011;53177;52.648;1.214;2024-01-07T14:17:57;7.93;;;2.13;;
66380;SDS011;53177;52.648;1.214;2024-01-07T14:20:22;5.40;;;1.80;;
66380;SDS011;53177;52.648;1.214;2024-01-07T14:22:48;10.30;;;1.60;;
66380;SDS011;53177;52.648;1.214;2024-01-07T14:25:13;6.80;;;1.90;;
66380;SDS011;53177;52.648;1.214;2024-01-07T14:27:39;7.63;;;1.77;;
66380;SDS011;53177;52.648;1.214;2024-01-07T14:30:05;6.50;;;1.88;;
66380;SDS011;53177;52.648;1.214;2024-01-07T14:32:31;8.13;;;2.10;;
66380;SDS011;53177;52.648;1.214;2024-01-07T14:34:58;8.05;;;2.00;;
66380;SDS011;53177;52.648;1.214;2024-01-07T14:37:23;10.95;;;2.10;;
66380;SDS011;53177;52.648;1.214;2024-01-07T14:39:49;10.50;;;2.00;;
66380;SDS011;53177;52.648;1.214;2024-01-07T14:42:14;6.80;;;1.60;;
66380;SDS011;53177;52.648;1.214;2024-01-07T14:44:40;7.67;;;2.00;;
66380;SDS011;53177;52.648;1.214;2024-01-07T14:47:06;9.27;;;2.20;;
66380;SDS011;53177;52.648;1.214;2024-01-07T14:49:31;9.23;;;1.70;;